sensor_id;sensor_type;location;lat;lon;timestamp;P1;durP1;ratioP1;P2;durP2;ratioP2
55732;SDS011;41637;52.364;9.910;2022-07-05T00:01:41;4.70;;;1.90;;
55732;SDS011;41637;52.364;9.910;2022-07-05T00:04:08;4.40;;;2.10;;
55732;SDS011;41637;52.364;9.910;2022-07-05T00:06:35;4.40;;;1.90;;
55732;SDS011;41637;52.364;9.910;2022-07-05T00:09:02;3.40;;;1.80;;
55732;SDS011;41637;52.364;9.910;2022-07-05T00:11:29;4.50;;;2.10;;
55732;SDS011;41637;52.364;9.910;2022-07-05T00:13:56;6.00;;;2.50;;
55732;SDS011;41637;52.364;9.910;2022-07-05T00:16:23;7.50;;;2.20;;
55732;SDS011;41637;52.364;9.910;2022-07-05T00:18:50;6.60;;;2.00;;
55732;SDS011;41637;52.364;9.910;2022-07-05T00:21:18;6.50;;;2.20;;
55732;SDS011;41637;52.364;9.910;2022-07-05T00:23:45;4.00;;;1.90;;
55732;SDS011;41637;52.364;9.910;2022-07-05T00:26:13;6.00;;;2.60;;
55732;SDS011;41637;52.364;9.910;2022-07-05T00:28:40;4.80;;;2.20;;
55732;SDS011;41637;52.364;9.910;2022-07-05T00:31:07;4.60;;;2.00;;
55732;SDS011;41637;52.364;9.910;2022-07-05T00:33:35;4.50;;;2.20;;
55732;SDS011;41637;52.364;9.910;2022-07-05T00:36:05;4.30;;;2.00;;
55732;SDS011;41637;52.364;9.910;2022-07-05T00:38:33;4.10;;;2.40;;
55732;SDS011;41637;52.364;9.910;2022-07-05T00:41:00;4.90;;;2.20;;
55732;SDS011;41637;52.364;9.910;2022-07-05T00:43:32;5.80;;;2.60;;
55732;SDS011;41637;52.364;9.910;2022-07-05T00:45:59;5.90;;;2.60;;
55732;SDS011;41637;52.364;9.910;2022-07-05T00:48:26;5.40;;;2.60;;
55732;SDS011;41637;52.364;9.910;2022-07-05T00:50:54;5.40;;;2.40;;
55732;SDS011;41637;52.364;9.910;2022-07-05T00:53:21;4.70;;;2.60;;
55732;SDS011;41637;52.364;9.910;2022-07-05T00:55:48;6.00;;;2.30;;
55732;SDS011;41637;52.364;9.910;2022-07-05T00:58:15;6.40;;;2.60;;
55732;SDS011;41637;52.364;9.910;2022-07-05T01:00:42;6.20;;;2.70;;
55732;SDS011;41637;52.364;9.910;2022-07-05T01:03:09;6.00;;;2.70;;
55732;SDS011;41637;52.364;9.910;2022-07-05T01:05:36;5.10;;;2.70;;
55732;SDS011;41637;52.364;9.910;2022-07-05T01:08:03;6.00;;;2.60;;
55732;SDS011;41637;52.364;9.910;2022-07-05T01:10:32;5.60;;;2.60;;
55732;SDS011;41637;52.364;9.910;2022-07-05T01:12:59;5.80;;;2.70;;
55732;SDS011;41637;52.364;9.910;2022-07-05T01:15:27;8.80;;;2.70;;
55732;SDS011;41637;52.364;9.910;2022-07-05T01:17:54;6.80;;;2.90;;
55732;SDS011;41637;52.364;9.910;2022-07-05T01:20:21;5.30;;;2.60;;
55732;SDS011;41637;52.364;9.910;2022-07-05T01:22:49;8.70;;;2.80;;
55732;SDS011;41637;52.364;9.910;2022-07-05T01:25:20;6.00;;;2.90;;
55732;SDS011;41637;52.364;9.910;2022-07-05T01:27:49;6.70;;;2.80;;
55732;SDS011;41637;52.364;9.910;2022-07-05T01:30:16;7.00;;;3.50;;
55732;SDS011;41637;52.364;9.910;2022-07-05T01:32:44;4.90;;;2.50;;
55732;SDS011;41637;52.364;9.910;2022-07-05T01:35:11;6.30;;;2.50;;
55732;SDS011;41637;52.364;9.910;2022-07-05T01:37:39;5.00;;;2.80;;
55732;SDS011;41637;52.364;9.910;2022-07-05T01:40:06;5.30;;;2.50;;
55732;SDS011;41637;52.364;9.910;2022-07-05T01:42:34;5.80;;;2.60;;
55732;SDS011;41637;52.364;9.910;2022-07-05T01:45:01;7.00;;;2.60;;
55732;SDS011;41637;52.364;9.910;2022-07-05T01:47:28;5.50;;;2.60;;
55732;SDS011;41637;52.364;9.910;2022-07-05T01:49:57;4.70;;;2.70;;
55732;SDS011;41637;52.364;9.910;2022-07-05T01:52:25;7.40;;;3.20;;
55732;SDS011;41637;52.364;9.910;2022-07-05T01:54:55;7.30;;;2.90;;
55732;SDS011;41637;52.364;9.910;2022-07-05T01:57:22;7.00;;;2.80;;
55732;SDS011;41637;52.364;9.910;2022-07-05T01:59:49;5.60;;;2.90;;
55732;SDS011;41637;52.364;9.910;2022-07-05T02:02:16;6.20;;;2.70;;
55732;SDS011;41637;52.364;9.910;2022-07-05T02:04:46;8.80;;;3.10;;
55732;SDS011;41637;52.364;9.910;2022-07-05T02:07:13;5.10;;;2.70;;
55732;SDS011;41637;52.364;9.910;2022-07-05T02:09:40;6.50;;;3.00;;
55732;SDS011;41637;52.364;9.910;2022-07-05T02:12:08;4.50;;;2.90;;
55732;SDS011;41637;52.364;9.910;2022-07-05T02:14:35;5.00;;;3.10;;
55732;SDS011;41637;52.364;9.910;2022-07-05T02:17:02;6.60;;;2.70;;
55732;SDS011;41637;52.364;9.910;2022-07-05T02:19:29;6.80;;;3.10;;
55732;SDS011;41637;52.364;9.910;2022-07-05T02:21:56;6.50;;;3.00;;
55732;SDS011;41637;52.364;9.910;2022-07-05T02:24:23;6.70;;;2.70;;
55732;SDS011;41637;52.364;9.910;2022-07-05T02:26:51;6.90;;;2.80;;
55732;SDS011;41637;52.364;9.910;2022-07-05T02:29:18;4.70;;;2.60;;
55732;SDS011;41637;52.364;9.910;2022-07-05T02:31:45;6.50;;;2.70;;
55732;SDS011;41637;52.364;9.910;2022-07-05T02:34:12;7.20;;;2.40;;
55732;SDS011;41637;52.364;9.910;2022-07-05T02:36:39;7.00;;;2.60;;
55732;SDS011;41637;52.364;9.910;2022-07-05T02:39:07;6.60;;;2.60;;
55732;SDS011;41637;52.364;9.910;2022-07-05T02:41:36;4.00;;;2.40;;
55732;SDS011;41637;52.364;9.910;2022-07-05T02:44:03;5.20;;;2.80;;
55732;SDS011;41637;52.364;9.910;2022-07-05T02:46:30;4.00;;;2.40;;
55732;SDS011;41637;52.364;9.910;2022-07-05T02:48:57;3.70;;;2.70;;
55732;SDS011;41637;52.364;9.910;2022-07-05T02:51:24;6.10;;;2.60;;
55732;SDS011;41637;52.364;9.910;2022-07-05T02:53:51;4.80;;;2.50;;
55732;SDS011;41637;52.364;9.910;2022-07-05T02:56:18;5.00;;;2.70;;
55732;SDS011;41637;52.364;9.910;2022-07-05T02:58:45;4.60;;;2.60;;
55732;SDS011;41637;52.364;9.910;2022-07-05T03:01:12;4.30;;;2.80;;
55732;SDS011;41637;52.364;9.910;2022-07-05T03:03:40;6.10;;;2.70;;
55732;SDS011;41637;52.364;9.910;2022-07-05T03:06:07;4.40;;;2.40;;
55732;SDS011;41637;52.364;9.910;2022-07-05T03:08:34;6.10;;;2.80;;
55732;SDS011;41637;52.364;9.910;2022-07-05T03:11:01;4.80;;;2.80;;
55732;SDS011;41637;52.364;9.910;2022-07-05T03:13:32;7.60;;;2.80;;
55732;SDS011;41637;52.364;9.910;2022-07-05T03:15:59;5.60;;;3.10;;
55732;SDS011;41637;52.364;9.910;2022-07-05T03:18:26;6.80;;;3.40;;
55732;SDS011;41637;52.364;9.910;2022-07-05T03:20:53;6.60;;;3.10;;
55732;SDS011;41637;52.364;9.910;2022-07-05T03:23:20;5.30;;;2.90;;
55732;SDS011;41637;52.364;9.910;2022-07-05T03:25:47;6.70;;;3.20;;
55732;SDS011;41637;52.364;9.910;2022-07-05T03:28:13;7.80;;;3.10;;
55732;SDS011;41637;52.364;9.910;2022-07-05T03:30:40;7.40;;;3.10;;
55732;SDS011;41637;52.364;9.910;2022-07-05T03:33:08;6.50;;;3.30;;
55732;SDS011;41637;52.364;9.910;2022-07-05T03:35:35;7.40;;;3.50;;
55732;SDS011;41637;52.364;9.910;2022-07-05T03:38:02;8.60;;;3.50;;
55732;SDS011;41637;52.364;9.910;2022-07-05T03:40:29;7.70;;;3.30;;
55732;SDS011;41637;52.364;9.910;2022-07-05T03:42:56;6.50;;;3.10;;
55732;SDS011;41637;52.364;9.910;2022-07-05T03:45:23;4.90;;;2.80;;
55732;SDS011;41637;52.364;9.910;2022-07-05T03:47:51;6.10;;;2.90;;
55732;SDS011;41637;52.364;9.910;2022-07-05T03:50:18;7.90;;;3.10;;
55732;SDS011;41637;52.364;9.910;2022-07-05T03:52:45;6.40;;;2.90;;
55732;SDS011;41637;52.364;9.910;2022-07-05T03:55:12;7.00;;;3.30;;
55732;SDS011;41637;52.364;9.910;2022-07-05T03:57:39;6.90;;;3.40;;
55732;SDS011;41637;52.364;9.910;2022-07-05T04:00:06;6.00;;;3.30;;
55732;SDS011;41637;52.364;9.910;2022-07-05T04:02:34;7.60;;;3.20;;
55732;SDS011;41637;52.364;9.910;2022-07-05T04:05:01;5.40;;;3.20;;
55732;SDS011;41637;52.364;9.910;2022-07-05T04:07:28;8.50;;;3.30;;
55732;SDS011;41637;52.364;9.910;2022-07-05T04:09:55;6.70;;;2.80;;
55732;SDS011;41637;52.364;9.910;2022-07-05T04:12:22;8.10;;;3.20;;
55732;SDS011;41637;52.364;9.910;2022-07-05T04:14:49;9.40;;;2.80;;
55732;SDS011;41637;52.364;9.910;2022-07-05T04:17:17;8.10;;;3.00;;
55732;SDS011;41637;52.364;9.910;2022-07-05T04:19:44;11.50;;;3.00;;
55732;SDS011;41637;52.364;9.910;2022-07-05T04:22:12;10.10;;;3.10;;
55732;SDS011;41637;52.364;9.910;2022-07-05T04:24:39;8.00;;;2.90;;
55732;SDS011;41637;52.364;9.910;2022-07-05T04:27:25;10.50;;;2.80;;
55732;SDS011;41637;52.364;9.910;2022-07-05T04:29:52;8.60;;;3.30;;
55732;SDS011;41637;52.364;9.910;2022-07-05T04:32:19;6.90;;;3.60;;
55732;SDS011;41637;52.364;9.910;2022-07-05T04:34:46;7.10;;;3.10;;
55732;SDS011;41637;52.364;9.910;2022-07-05T04:37:12;8.20;;;3.20;;
55732;SDS011;41637;52.364;9.910;2022-07-05T04:39:39;9.00;;;3.10;;
55732;SDS011;41637;52.364;9.910;2022-07-05T04:42:07;9.40;;;3.20;;
55732;SDS011;41637;52.364;9.910;2022-07-05T04:44:34;7.60;;;3.30;;
55732;SDS011;41637;52.364;9.910;2022-07-05T04:47:01;8.90;;;3.40;;
55732;SDS011;41637;52.364;9.910;2022-07-05T04:49:28;7.50;;;3.20;;
55732;SDS011;41637;52.364;9.910;2022-07-05T04:51:55;7.70;;;3.10;;
55732;SDS011;41637;52.364;9.910;2022-07-05T04:54:22;8.50;;;2.70;;
55732;SDS011;41637;52.364;9.910;2022-07-05T04:56:49;6.50;;;3.10;;
55732;SDS011;41637;52.364;9.910;2022-07-05T04:59:16;8.30;;;3.10;;
55732;SDS011;41637;52.364;9.910;2022-07-05T05:01:49;5.70;;;2.90;;
55732;SDS011;41637;52.364;9.910;2022-07-05T05:04:16;9.80;;;3.10;;
55732;SDS011;41637;52.364;9.910;2022-07-05T05:06:43;8.70;;;2.70;;
55732;SDS011;41637;52.364;9.910;2022-07-05T05:09:10;7.90;;;2.90;;
55732;SDS011;41637;52.364;9.910;2022-07-05T05:11:37;7.80;;;3.00;;
55732;SDS011;41637;52.364;9.910;2022-07-05T05:14:04;7.60;;;2.60;;
55732;SDS011;41637;52.364;9.910;2022-07-05T05:16:31;6.30;;;2.70;;
55732;SDS011;41637;52.364;9.910;2022-07-05T05:18:58;7.50;;;3.00;;
55732;SDS011;41637;52.364;9.910;2022-07-05T05:21:25;5.80;;;2.80;;
55732;SDS011;41637;52.364;9.910;2022-07-05T05:23:52;5.90;;;2.50;;
55732;SDS011;41637;52.364;9.910;2022-07-05T05:26:19;5.60;;;2.60;;
55732;SDS011;41637;52.364;9.910;2022-07-05T05:28:46;6.90;;;2.20;;
55732;SDS011;41637;52.364;9.910;2022-07-05T05:31:13;6.10;;;2.10;;
55732;SDS011;41637;52.364;9.910;2022-07-05T05:33:40;7.40;;;2.50;;
55732;SDS011;41637;52.364;9.910;2022-07-05T05:36:07;11.20;;;2.90;;
55732;SDS011;41637;52.364;9.910;2022-07-05T05:38:34;15.60;;;2.90;;
55732;SDS011;41637;52.364;9.910;2022-07-05T05:41:00;23.90;;;3.50;;
55732;SDS011;41637;52.364;9.910;2022-07-05T05:43:30;21.50;;;3.60;;
55732;SDS011;41637;52.364;9.910;2022-07-05T05:45:57;10.10;;;2.00;;
55732;SDS011;41637;52.364;9.910;2022-07-05T05:48:24;15.60;;;4.00;;
55732;SDS011;41637;52.364;9.910;2022-07-05T05:50:52;5.70;;;2.10;;
55732;SDS011;41637;52.364;9.910;2022-07-05T05:53:18;8.20;;;2.80;;
55732;SDS011;41637;52.364;9.910;2022-07-05T05:55:45;9.30;;;2.80;;
55732;SDS011;41637;52.364;9.910;2022-07-05T05:58:22;11.20;;;2.50;;
55732;SDS011;41637;52.364;9.910;2022-07-05T06:00:52;9.50;;;2.60;;
55732;SDS011;41637;52.364;9.910;2022-07-05T06:03:19;9.50;;;3.40;;
55732;SDS011;41637;52.364;9.910;2022-07-05T06:05:47;5.40;;;2.80;;
55732;SDS011;41637;52.364;9.910;2022-07-05T06:08:14;10.10;;;3.00;;
55732;SDS011;41637;52.364;9.910;2022-07-05T06:10:41;7.60;;;2.60;;
55732;SDS011;41637;52.364;9.910;2022-07-05T06:13:09;8.70;;;2.90;;
55732;SDS011;41637;52.364;9.910;2022-07-05T06:15:36;10.00;;;2.90;;
55732;SDS011;41637;52.364;9.910;2022-07-05T06:18:04;6.30;;;2.60;;
55732;SDS011;41637;52.364;9.910;2022-07-05T06:20:36;9.00;;;3.10;;
55732;SDS011;41637;52.364;9.910;2022-07-05T06:23:05;13.40;;;2.90;;
55732;SDS011;41637;52.364;9.910;2022-07-05T06:25:33;13.10;;;2.70;;
55732;SDS011;41637;52.364;9.910;2022-07-05T06:28:01;9.20;;;2.20;;
55732;SDS011;41637;52.364;9.910;2022-07-05T06:30:33;10.70;;;2.70;;
55732;SDS011;41637;52.364;9.910;2022-07-05T06:33:01;6.80;;;2.70;;
55732;SDS011;41637;52.364;9.910;2022-07-05T06:35:28;7.60;;;2.40;;
55732;SDS011;41637;52.364;9.910;2022-07-05T06:38:00;8.00;;;2.00;;
55732;SDS011;41637;52.364;9.910;2022-07-05T06:40:34;5.90;;;1.90;;
55732;SDS011;41637;52.364;9.910;2022-07-05T06:43:02;6.80;;;2.20;;
55732;SDS011;41637;52.364;9.910;2022-07-05T06:45:32;9.90;;;2.50;;
55732;SDS011;41637;52.364;9.910;2022-07-05T06:48:06;8.00;;;2.60;;
55732;SDS011;41637;52.364;9.910;2022-07-05T06:50:37;7.40;;;2.30;;
55732;SDS011;41637;52.364;9.910;2022-07-05T06:53:06;6.40;;;1.70;;
55732;SDS011;41637;52.364;9.910;2022-07-05T06:55:34;8.30;;;1.80;;
55732;SDS011;41637;52.364;9.910;2022-07-05T06:58:05;6.30;;;1.70;;
55732;SDS011;41637;52.364;9.910;2022-07-05T07:00:38;4.10;;;1.50;;
55732;SDS011;41637;52.364;9.910;2022-07-05T07:03:28;7.20;;;1.70;;
55732;SDS011;41637;52.364;9.910;2022-07-05T07:06:15;11.60;;;2.30;;
55732;SDS011;41637;52.364;9.910;2022-07-05T07:08:43;4.90;;;1.50;;
55732;SDS011;41637;52.364;9.910;2022-07-05T07:11:28;7.50;;;1.60;;
55732;SDS011;41637;52.364;9.910;2022-07-05T07:13:55;5.50;;;1.40;;
55732;SDS011;41637;52.364;9.910;2022-07-05T07:16:23;4.90;;;1.30;;
55732;SDS011;41637;52.364;9.910;2022-07-05T07:18:50;3.40;;;1.30;;
55732;SDS011;41637;52.364;9.910;2022-07-05T07:21:38;4.10;;;1.50;;
55732;SDS011;41637;52.364;9.910;2022-07-05T07:24:06;3.90;;;1.10;;
55732;SDS011;41637;52.364;9.910;2022-07-05T07:26:34;3.00;;;1.10;;
55732;SDS011;41637;52.364;9.910;2022-07-05T07:29:21;2.90;;;1.10;;
55732;SDS011;41637;52.364;9.910;2022-07-05T07:31:48;4.20;;;1.10;;
55732;SDS011;41637;52.364;9.910;2022-07-05T07:34:16;4.80;;;1.10;;
55732;SDS011;41637;52.364;9.910;2022-07-05T07:36:43;2.60;;;1.00;;
55732;SDS011;41637;52.364;9.910;2022-07-05T07:39:10;2.50;;;0.90;;
55732;SDS011;41637;52.364;9.910;2022-07-05T07:41:37;5.10;;;1.00;;
55732;SDS011;41637;52.364;9.910;2022-07-05T07:44:04;6.90;;;1.50;;
55732;SDS011;41637;52.364;9.910;2022-07-05T07:46:32;4.00;;;0.90;;
55732;SDS011;41637;52.364;9.910;2022-07-05T07:48:59;4.40;;;0.90;;
55732;SDS011;41637;52.364;9.910;2022-07-05T07:51:26;3.20;;;0.80;;
55732;SDS011;41637;52.364;9.910;2022-07-05T07:53:53;4.50;;;0.90;;
55732;SDS011;41637;52.364;9.910;2022-07-05T07:56:27;4.00;;;0.90;;
55732;SDS011;41637;52.364;9.910;2022-07-05T07:58:56;3.60;;;1.10;;
55732;SDS011;41637;52.364;9.910;2022-07-05T08:01:23;5.00;;;1.00;;
55732;SDS011;41637;52.364;9.910;2022-07-05T08:03:50;3.20;;;0.70;;
55732;SDS011;41637;52.364;9.910;2022-07-05T08:06:17;3.50;;;0.90;;
55732;SDS011;41637;52.364;9.910;2022-07-05T08:08:44;4.30;;;0.80;;
55732;SDS011;41637;52.364;9.910;2022-07-05T08:11:13;2.60;;;0.90;;
55732;SDS011;41637;52.364;9.910;2022-07-05T08:13:41;2.00;;;0.70;;
55732;SDS011;41637;52.364;9.910;2022-07-05T08:16:09;2.70;;;0.70;;
55732;SDS011;41637;52.364;9.910;2022-07-05T08:18:36;3.60;;;0.80;;
55732;SDS011;41637;52.364;9.910;2022-07-05T08:21:23;2.20;;;0.70;;
55732;SDS011;41637;52.364;9.910;2022-07-05T08:24:04;2.60;;;0.70;;
55732;SDS011;41637;52.364;9.910;2022-07-05T08:26:33;5.10;;;0.90;;
55732;SDS011;41637;52.364;9.910;2022-07-05T08:29:00;2.40;;;0.60;;
55732;SDS011;41637;52.364;9.910;2022-07-05T08:31:35;2.50;;;0.80;;
55732;SDS011;41637;52.364;9.910;2022-07-05T08:34:06;3.00;;;0.50;;
55732;SDS011;41637;52.364;9.910;2022-07-05T08:36:34;2.10;;;0.80;;
55732;SDS011;41637;52.364;9.910;2022-07-05T08:39:01;3.30;;;0.80;;
55732;SDS011;41637;52.364;9.910;2022-07-05T08:41:29;2.90;;;0.90;;
55732;SDS011;41637;52.364;9.910;2022-07-05T08:44:00;4.00;;;0.80;;
55732;SDS011;41637;52.364;9.910;2022-07-05T08:46:32;2.90;;;0.60;;
55732;SDS011;41637;52.364;9.910;2022-07-05T08:49:00;3.80;;;0.90;;
55732;SDS011;41637;52.364;9.910;2022-07-05T08:51:37;2.90;;;0.70;;
55732;SDS011;41637;52.364;9.910;2022-07-05T08:54:05;3.40;;;0.70;;
55732;SDS011;41637;52.364;9.910;2022-07-05T08:56:35;3.20;;;0.80;;
55732;SDS011;41637;52.364;9.910;2022-07-05T08:59:22;8.00;;;1.10;;
55732;SDS011;41637;52.364;9.910;2022-07-05T09:01:49;1.80;;;0.70;;
55732;SDS011;41637;52.364;9.910;2022-07-05T09:04:17;2.10;;;0.90;;
55732;SDS011;41637;52.364;9.910;2022-07-05T09:06:46;2.00;;;0.60;;
55732;SDS011;41637;52.364;9.910;2022-07-05T09:09:14;2.10;;;0.60;;
55732;SDS011;41637;52.364;9.910;2022-07-05T09:11:43;3.70;;;0.80;;
55732;SDS011;41637;52.364;9.910;2022-07-05T09:14:34;2.80;;;0.70;;
55732;SDS011;41637;52.364;9.910;2022-07-05T09:17:02;1.50;;;0.70;;
55732;SDS011;41637;52.364;9.910;2022-07-05T09:19:29;1.10;;;0.50;;
55732;SDS011;41637;52.364;9.910;2022-07-05T09:22:01;2.60;;;0.70;;
55732;SDS011;41637;52.364;9.910;2022-07-05T09:24:29;2.80;;;0.70;;
55732;SDS011;41637;52.364;9.910;2022-07-05T09:27:04;6.10;;;0.80;;
55732;SDS011;41637;52.364;9.910;2022-07-05T09:29:31;2.90;;;0.80;;
55732;SDS011;41637;52.364;9.910;2022-07-05T09:32:23;2.30;;;0.80;;
55732;SDS011;41637;52.364;9.910;2022-07-05T09:34:50;7.70;;;1.30;;
55732;SDS011;41637;52.364;9.910;2022-07-05T09:37:17;2.60;;;0.70;;
55732;SDS011;41637;52.364;9.910;2022-07-05T09:39:44;1.30;;;0.60;;
55732;SDS011;41637;52.364;9.910;2022-07-05T09:42:22;2.40;;;1.10;;
55732;SDS011;41637;52.364;9.910;2022-07-05T09:44:58;1.80;;;0.60;;
55732;SDS011;41637;52.364;9.910;2022-07-05T09:47:27;2.30;;;0.80;;
55732;SDS011;41637;52.364;9.910;2022-07-05T09:49:55;2.60;;;0.70;;
55732;SDS011;41637;52.364;9.910;2022-07-05T09:52:40;13.70;;;1.70;;
55732;SDS011;41637;52.364;9.910;2022-07-05T09:55:15;6.10;;;1.10;;
55732;SDS011;41637;52.364;9.910;2022-07-05T09:57:45;2.80;;;0.60;;
55732;SDS011;41637;52.364;9.910;2022-07-05T10:00:14;2.40;;;0.60;;
55732;SDS011;41637;52.364;9.910;2022-07-05T10:02:46;2.40;;;0.90;;
55732;SDS011;41637;52.364;9.910;2022-07-05T10:05:17;2.40;;;0.70;;
55732;SDS011;41637;52.364;9.910;2022-07-05T10:07:45;1.50;;;0.50;;
55732;SDS011;41637;52.364;9.910;2022-07-05T10:10:19;1.40;;;0.50;;
55732;SDS011;41637;52.364;9.910;2022-07-05T10:12:47;1.60;;;0.60;;
55732;SDS011;41637;52.364;9.910;2022-07-05T10:15:18;1.70;;;0.70;;
55732;SDS011;41637;52.364;9.910;2022-07-05T10:17:47;2.10;;;0.60;;
55732;SDS011;41637;52.364;9.910;2022-07-05T10:20:24;2.80;;;0.70;;
55732;SDS011;41637;52.364;9.910;2022-07-05T10:22:59;3.10;;;0.70;;
55732;SDS011;41637;52.364;9.910;2022-07-05T10:25:31;3.30;;;0.70;;
55732;SDS011;41637;52.364;9.910;2022-07-05T10:27:58;2.20;;;0.70;;
55732;SDS011;41637;52.364;9.910;2022-07-05T10:30:25;2.80;;;0.70;;
55732;SDS011;41637;52.364;9.910;2022-07-05T10:32:53;2.00;;;0.70;;
55732;SDS011;41637;52.364;9.910;2022-07-05T10:35:22;4.40;;;0.70;;
55732;SDS011;41637;52.364;9.910;2022-07-05T10:37:50;3.80;;;0.70;;
55732;SDS011;41637;52.364;9.910;2022-07-05T10:40:17;1.70;;;0.60;;
55732;SDS011;41637;52.364;9.910;2022-07-05T10:42:49;2.60;;;0.70;;
55732;SDS011;41637;52.364;9.910;2022-07-05T10:50:51;1.90;;;0.50;;
55732;SDS011;41637;52.364;9.910;2022-07-05T10:55:56;3.60;;;0.70;;
55732;SDS011;41637;52.364;9.910;2022-07-05T10:58:32;2.10;;;0.60;;
55732;SDS011;41637;52.364;9.910;2022-07-05T11:03:54;1.60;;;0.60;;
55732;SDS011;41637;52.364;9.910;2022-07-05T11:11:39;3.70;;;0.80;;
55732;SDS011;41637;52.364;9.910;2022-07-05T11:14:38;1.90;;;0.80;;
55732;SDS011;41637;52.364;9.910;2022-07-05T11:20:25;2.10;;;0.50;;
55732;SDS011;41637;52.364;9.910;2022-07-05T11:23:00;2.10;;;0.60;;
55732;SDS011;41637;52.364;9.910;2022-07-05T11:25:31;2.00;;;0.50;;
55732;SDS011;41637;52.364;9.910;2022-07-05T11:28:00;1.60;;;0.60;;
55732;SDS011;41637;52.364;9.910;2022-07-05T11:30:43;3.20;;;0.60;;
55732;SDS011;41637;52.364;9.910;2022-07-05T11:33:40;1.90;;;0.40;;
55732;SDS011;41637;52.364;9.910;2022-07-05T11:36:24;1.60;;;0.40;;
55732;SDS011;41637;52.364;9.910;2022-07-05T11:41:47;4.50;;;0.60;;
55732;SDS011;41637;52.364;9.910;2022-07-05T11:44:14;2.30;;;0.50;;
55732;SDS011;41637;52.364;9.910;2022-07-05T11:46:43;2.80;;;0.60;;
55732;SDS011;41637;52.364;9.910;2022-07-05T11:49:20;2.70;;;0.50;;
55732;SDS011;41637;52.364;9.910;2022-07-05T11:52:01;1.30;;;0.40;;
55732;SDS011;41637;52.364;9.910;2022-07-05T11:54:30;2.10;;;0.40;;
55732;SDS011;41637;52.364;9.910;2022-07-05T11:56:59;3.40;;;0.60;;
55732;SDS011;41637;52.364;9.910;2022-07-05T11:59:26;2.40;;;0.40;;
55732;SDS011;41637;52.364;9.910;2022-07-05T12:01:53;1.90;;;0.50;;
55732;SDS011;41637;52.364;9.910;2022-07-05T12:04:26;2.60;;;0.60;;
55732;SDS011;41637;52.364;9.910;2022-07-05T12:06:54;1.40;;;0.30;;
55732;SDS011;41637;52.364;9.910;2022-07-05T12:09:26;2.00;;;0.60;;
55732;SDS011;41637;52.364;9.910;2022-07-05T12:12:21;1.20;;;0.40;;
55732;SDS011;41637;52.364;9.910;2022-07-05T12:15:08;3.10;;;0.50;;
55732;SDS011;41637;52.364;9.910;2022-07-05T12:17:36;2.60;;;0.50;;
55732;SDS011;41637;52.364;9.910;2022-07-05T12:20:04;1.70;;;0.40;;
55732;SDS011;41637;52.364;9.910;2022-07-05T12:25:01;1.60;;;0.50;;
55732;SDS011;41637;52.364;9.910;2022-07-05T12:27:32;1.60;;;0.40;;
55732;SDS011;41637;52.364;9.910;2022-07-05T12:30:00;1.00;;;0.40;;
55732;SDS011;41637;52.364;9.910;2022-07-05T12:32:29;2.40;;;0.50;;
55732;SDS011;41637;52.364;9.910;2022-07-05T12:34:57;2.90;;;0.70;;
55732;SDS011;41637;52.364;9.910;2022-07-05T12:37:31;1.00;;;0.30;;
55732;SDS011;41637;52.364;9.910;2022-07-05T12:40:04;2.20;;;0.40;;
55732;SDS011;41637;52.364;9.910;2022-07-05T12:42:36;1.30;;;0.40;;
55732;SDS011;41637;52.364;9.910;2022-07-05T12:45:14;2.50;;;0.50;;
55732;SDS011;41637;52.364;9.910;2022-07-05T12:47:51;4.10;;;0.50;;
55732;SDS011;41637;52.364;9.910;2022-07-05T12:50:23;1.60;;;0.30;;
55732;SDS011;41637;52.364;9.910;2022-07-05T12:53:02;2.60;;;0.70;;
55732;SDS011;41637;52.364;9.910;2022-07-05T12:55:58;5.20;;;0.70;;
55732;SDS011;41637;52.364;9.910;2022-07-05T12:58:46;1.80;;;0.50;;
55732;SDS011;41637;52.364;9.910;2022-07-05T13:01:20;1.00;;;0.40;;
55732;SDS011;41637;52.364;9.910;2022-07-05T13:03:54;1.90;;;0.40;;
55732;SDS011;41637;52.364;9.910;2022-07-05T13:06:38;4.20;;;0.50;;
55732;SDS011;41637;52.364;9.910;2022-07-05T13:12:13;1.40;;;0.50;;
55732;SDS011;41637;52.364;9.910;2022-07-05T13:14:53;2.00;;;0.40;;
55732;SDS011;41637;52.364;9.910;2022-07-05T13:17:21;2.30;;;0.50;;
55732;SDS011;41637;52.364;9.910;2022-07-05T13:19:50;1.20;;;0.40;;
55732;SDS011;41637;52.364;9.910;2022-07-05T13:22:18;2.30;;;0.40;;
55732;SDS011;41637;52.364;9.910;2022-07-05T13:24:45;2.20;;;0.40;;
55732;SDS011;41637;52.364;9.910;2022-07-05T13:27:12;3.50;;;0.60;;
55732;SDS011;41637;52.364;9.910;2022-07-05T13:29:40;1.30;;;0.50;;
55732;SDS011;41637;52.364;9.910;2022-07-05T13:32:07;2.40;;;0.60;;
55732;SDS011;41637;52.364;9.910;2022-07-05T13:34:34;1.30;;;0.30;;
55732;SDS011;41637;52.364;9.910;2022-07-05T13:37:01;1.70;;;0.40;;
55732;SDS011;41637;52.364;9.910;2022-07-05T13:39:28;2.00;;;0.60;;
55732;SDS011;41637;52.364;9.910;2022-07-05T13:41:56;1.70;;;0.40;;
55732;SDS011;41637;52.364;9.910;2022-07-05T13:44:24;1.70;;;0.20;;
55732;SDS011;41637;52.364;9.910;2022-07-05T13:46:51;1.80;;;0.40;;
55732;SDS011;41637;52.364;9.910;2022-07-05T13:49:18;0.40;;;0.20;;
55732;SDS011;41637;52.364;9.910;2022-07-05T13:51:46;1.60;;;0.30;;
55732;SDS011;41637;52.364;9.910;2022-07-05T13:54:13;0.90;;;0.20;;
55732;SDS011;41637;52.364;9.910;2022-07-05T13:56:40;1.40;;;0.50;;
55732;SDS011;41637;52.364;9.910;2022-07-05T13:59:08;2.10;;;0.50;;
55732;SDS011;41637;52.364;9.910;2022-07-05T14:06:30;1.20;;;0.40;;
55732;SDS011;41637;52.364;9.910;2022-07-05T14:08:58;1.40;;;0.30;;
55732;SDS011;41637;52.364;9.910;2022-07-05T14:11:26;1.00;;;0.20;;
55732;SDS011;41637;52.364;9.910;2022-07-05T14:13:53;1.20;;;0.40;;
55732;SDS011;41637;52.364;9.910;2022-07-05T14:23:44;1.90;;;0.20;;
55732;SDS011;41637;52.364;9.910;2022-07-05T14:26:15;0.80;;;0.30;;
55732;SDS011;41637;52.364;9.910;2022-07-05T14:28:42;2.30;;;0.30;;
55732;SDS011;41637;52.364;9.910;2022-07-05T14:31:09;1.80;;;0.30;;
55732;SDS011;41637;52.364;9.910;2022-07-05T14:33:37;1.30;;;0.30;;
55732;SDS011;41637;52.364;9.910;2022-07-05T14:36:07;1.20;;;0.40;;
55732;SDS011;41637;52.364;9.910;2022-07-05T14:38:34;0.90;;;0.40;;
55732;SDS011;41637;52.364;9.910;2022-07-05T14:41:01;1.60;;;0.40;;
55732;SDS011;41637;52.364;9.910;2022-07-05T14:43:30;1.00;;;0.20;;
55732;SDS011;41637;52.364;9.910;2022-07-05T14:45:57;4.70;;;0.80;;
55732;SDS011;41637;52.364;9.910;2022-07-05T14:48:24;2.20;;;0.40;;
55732;SDS011;41637;52.364;9.910;2022-07-05T14:50:52;1.70;;;0.30;;
55732;SDS011;41637;52.364;9.910;2022-07-05T14:53:25;1.80;;;0.40;;
55732;SDS011;41637;52.364;9.910;2022-07-05T14:55:52;1.30;;;0.30;;
55732;SDS011;41637;52.364;9.910;2022-07-05T14:58:21;1.00;;;0.30;;
55732;SDS011;41637;52.364;9.910;2022-07-05T15:00:48;1.50;;;0.30;;
55732;SDS011;41637;52.364;9.910;2022-07-05T15:03:15;1.30;;;0.40;;
55732;SDS011;41637;52.364;9.910;2022-07-05T15:05:43;2.00;;;0.30;;
55732;SDS011;41637;52.364;9.910;2022-07-05T15:08:10;2.70;;;0.40;;
55732;SDS011;41637;52.364;9.910;2022-07-05T15:10:37;1.80;;;0.50;;
55732;SDS011;41637;52.364;9.910;2022-07-05T15:13:04;0.50;;;0.20;;
55732;SDS011;41637;52.364;9.910;2022-07-05T15:15:32;1.10;;;0.40;;
55732;SDS011;41637;52.364;9.910;2022-07-05T15:17:59;2.00;;;0.40;;
55732;SDS011;41637;52.364;9.910;2022-07-05T15:20:26;0.90;;;0.30;;
55732;SDS011;41637;52.364;9.910;2022-07-05T15:22:53;1.50;;;0.50;;
55732;SDS011;41637;52.364;9.910;2022-07-05T15:25:20;1.40;;;0.40;;
55732;SDS011;41637;52.364;9.910;2022-07-05T15:27:46;1.00;;;0.40;;
55732;SDS011;41637;52.364;9.910;2022-07-05T15:30:14;1.60;;;0.50;;
55732;SDS011;41637;52.364;9.910;2022-07-05T15:35:11;2.60;;;0.30;;
55732;SDS011;41637;52.364;9.910;2022-07-05T15:37:38;0.50;;;0.20;;
55732;SDS011;41637;52.364;9.910;2022-07-05T15:40:05;0.90;;;0.30;;
55732;SDS011;41637;52.364;9.910;2022-07-05T15:42:33;1.80;;;0.30;;
55732;SDS011;41637;52.364;9.910;2022-07-05T15:45:00;2.90;;;0.50;;